Accueil
METAR-TAF:

METAR-TAF

Aéroports :

Aéroport international Maiquetía - Simón Bolívar

Caracas, Venezuela

latitude: 10-36N, longitude: 066-59W, altitude: 43 m

Observation

Le bulletin a été fait il y a 35 minutes, à 02:00 UTC
Vent calme
Température 25°C
Humidité 83%
Pression 1011 hPa
Visibilité 10 km ou plus
Nuages épars à une hauteur de 1600 ft

METAR: SVMI 210200Z 00000KT 9999 SCT016 25/22 Q1011

Heure: 22:35 (02:35 UTC)

Prévision

Le bulletin a été fait il y a 4 heures et 35 minutes, à 22:00 UTC
Prévision valable du 21 à 00 UTC au 22 à 00 UTC
Vent 6 kt de est
Visibilité 10 km ou plus
Quelques nuages à une hauteur de 1600 ft
Nuages épars à une hauteur de 7000 ft
Temporairement
du 21 à 00 UTC au 21 à 06 UTC
Vent 3 kt de est/nord-est
Visibilité: 9000 m
Quelques nuages à une hauteur de 1600 ft
bruine

TAF: SVMI 202200Z 2100/2200 09006KT 9999 FEW016 SCT070 TX32/17Z TN24/10Z TEMPO 2100/2106 07003KT 9000 DZ FEW016

Observations et prévisions météorologiques de plus de 4000 aéroports (messages METAR et TAF).

Les stations disponibles sont représentées par des disques jaunes et rouges sur la carte.

Passer la souris dessus pour voir le nom de la station.

Cliquer dessus pour voir les observations et prévisions météorologiques.

Pour changer de carte: cliquez sur les boutons verts avec une croix noire pour zoomer, sur le bouton vert avec un tiret pour effectuer un zoom arrière, ou sur les flèches vertes pour les cartes adjacentes.


METAR-TAF: